Nearby METAR Reports

EGNX - East Midlands, United Kingdom
Distance: S 18mi, 28km
Updated: 21/10/2018 17:50
Mostly cloudy
Mostly cloudy
 Wind from NNW
Wind: NNW 16 mph , 26 km/h
Temperature: 14°C
Dew Point: 12°C
Humidity: 88%
Barometer: 1027 hPa
Clouds: Mostly cloudy
Visibility: 6 miles , 10 km
Cloud details: Partly cloudy 305 m
Mostly cloudy 640 m
2018/10/21 16:50 EGNX 211650Z 33014KT 9999 SCT010 BKN021 14/12 Q1027
EGCN - Doncaster Sheffi, United Kingdom
Distance: NNE 31mi, 50km
Updated: 21/10/2018 18:20
Mostly cloudy
Mostly cloudy
 Wind from WNW
Wind: WNW 9 mph , 15 km/h
Temperature: 14°C
Dew Point: 11°C
Humidity: 82%
Barometer: 1028 hPa
Clouds: Mostly cloudy
Visibility: 6 miles , 10 km
Cloud details: Mostly cloudy 518 m
Mostly cloudy 732 m
2018/10/21 17:20 EGCN 211720Z 29008KT 9999 BKN017 BKN024 14/11 Q1028
EGYE - Barkston Heath R, United Kingdom
Distance: ESE 31mi, 50km
Updated: 19/10/2018 15:50
NOT Current
Few Clouds
Few Clouds
 Wind from WSW
Wind: WSW 7 mph , 11 km/h
Barometer: 1025 hPa
Clouds: Few Clouds
Visibility: 6 miles , 10 km
Cloud details: Few Clouds 1219 m
2018/10/19 14:50 EGYE 191450Z 25006KT 9999 FEW040 ///// Q1025 BLU
 
EGXW - Waddington Raf, United Kingdom
Distance: ENE 33mi, 53km
Updated: 21/10/2018 17:50
Mostly cloudy
Mostly cloudy
 Wind from NW
Wind: NW 14 mph , 22 km/h
Temperature: 15°C
Dew Point: 12°C
Humidity: 82%
Barometer: 1026 hPa
Clouds: Mostly cloudy
Visibility: 6 miles , 10 km
Cloud details: Partly cloudy 518 m
Mostly cloudy 914 m
Mostly cloudy 2134 m
2018/10/21 16:50 EGXW 211650Z 31012KT 9999 SCT017 BKN030 BKN070 15/12 Q1026 WHT
EGYD - Cranwell Raf, United Kingdom
Distance: E 33mi, 53km
Updated: 21/10/2018 17:50
Partly cloudy
Partly cloudy
 Wind from WNW
Wind: WNW 13 mph , 20 km/h
Temperature: 16°C
Dew Point: 12°C
Humidity: 77%
Barometer: 1026 hPa
Clouds: Partly cloudy
Visibility: 6 miles , 10 km
Cloud details: Mostly cloudy 640 m
Partly cloudy 1524 m
2018/10/21 16:50 EGYD 211650Z AUTO 29011KT 9999 // BKN021/// SCT050/// 16/12 Q1026
EGXP - Scampton Raf, United Kingdom
Distance: ENE 35mi, 56km
Updated: 21/10/2018 17:50
Mostly cloudy
Mostly cloudy
 Wind from WNW
Wind: WNW 15 mph , 24 km/h
Temperature: 15°C
Dew Point: 12°C
Humidity: 82%
Barometer: 1026 hPa
Clouds: Mostly cloudy
Cloud details: Few Clouds 610 m
Mostly cloudy 2438 m
2018/10/21 16:50 EGXP 211650Z AUTO 29013KT //// // FEW020/// BKN080/// 15/12 Q1026
 
EGCC - Manchester Intl, United Kingdom
Distance: WNW 45mi, 72km
Updated: 21/10/2018 18:20
Few Clouds
Few Clouds
 Wind from NW
Wind: NW 10 mph , 17 km/h
Temperature: 12°C
Dew Point: 9°C
Humidity: 82%
Barometer: 1029 hPa
Clouds: Few Clouds
Visibility: 6 miles , 10 km
Cloud details: Few Clouds 640 m
2018/10/21 17:20 EGCC 211720Z AUTO 31009KT 9999 FEW021 12/09 Q1029 NOSIG
EGBB - Birmingham Airpo, United Kingdom
Distance: SSW 46mi, 74km
Updated: 21/10/2018 18:20
Overcast
Overcast
 Wind from NNW
Wind: NNW 16 mph , 26 km/h
Temperature: 14°C
Dew Point: 11°C
Humidity: 82%
Barometer: 1028 hPa
Clouds: Overcast
Visibility: 6 miles , 10 km
Cloud details: Few Clouds 335 m
Overcast 610 m
2018/10/21 17:20 EGBB 211720Z 34014KT 9999 FEW011 OVC020 14/11 Q1028
EGXC - Coningsby Raf, United Kingdom
Distance: E 47mi, 75km
Updated: 21/10/2018 17:50
Mostly cloudy
Mostly cloudy
 Wind from NW
Wind: NW 10 mph , 17 km/h
Temperature: 17°C
Dew Point: 13°C
Humidity: 77%
Barometer: 1026 hPa
Clouds: Mostly cloudy
Visibility: 6 miles , 10 km
Cloud details: Mostly cloudy 762 m
2018/10/21 16:50 EGXC 211650Z 31009KT 9999 BKN025 17/13 Q1026 BLU
 
EGXT - Wittering Raf, United Kingdom
Distance: SE 47mi, 75km
Updated: 21/10/2018 17:50
Mostly cloudy
Mostly cloudy
 Wind from WNW
Wind: WNW 12 mph , 19 km/h
Temperature: 17°C
Dew Point: 12°C
Humidity: 73%
Barometer: 1026 hPa
Clouds: Mostly cloudy
Visibility: 6 miles , 10 km
Cloud details: Mostly cloudy 701 m
Mostly cloudy 823 m
2018/10/21 16:50 EGXT 211650Z AUTO 29010KT 9999 BKN023/// BKN027/// 17/12 Q1026
EGNJ - Humberside, United Kingdom
Distance: NE 52mi, 83km
Updated: 21/10/2018 18:20
Mostly cloudy
Mostly cloudy
 Wind from NW
Wind: NW 12 mph , 19 km/h
Temperature: 15°C
Dew Point: 11°C
Humidity: 77%
Barometer: 1026 hPa
Clouds: Mostly cloudy
Visibility: 6 miles , 10 km
Cloud details: Mostly cloudy 762 m
2018/10/21 17:20 EGNJ 211720Z 31010KT 9999 BKN025 15/11 Q1026
EGWC - Cosford Raf, United Kingdom
Distance: SW 52mi, 83km
Updated: 21/10/2018 14:50
NOT Current
Mostly cloudy
Mostly cloudy
 Wind from W
Wind: W 8 mph , 13 km/h
Temperature: 15°C
Dew Point: 12°C
Humidity: 82%
Barometer: 1027 hPa
Clouds: Mostly cloudy
Visibility: 6 miles , 10 km
Cloud details: Partly cloudy 610 m
Mostly cloudy 2134 m
2018/10/21 13:50 EGWC 211350Z 27007KT 9999 SCT020 BKN070 15/12 Q1027 WHT
 
EGNM - Leeds And Bradfo, United Kingdom
Distance: NNW 57mi, 91km
Updated: 21/10/2018 18:20
Partly cloudy
Partly cloudy
 Wind from WNW
Wind: WNW 15 mph , 24 km/h
Temperature: 11°C
Dew Point: 8°C
Humidity: 82%
Barometer: 1028 hPa
Clouds: Partly cloudy
Visibility: 6 miles , 10 km
Cloud details: Few Clouds 427 m
Partly cloudy 823 m
2018/10/21 17:20 EGNM 211720Z 30013KT 9999 FEW014 SCT027 11/08 Q1028
EGOS - Shawbury Raf, United Kingdom
Distance: WSW 60mi, 97km
Updated: 21/10/2018 17:50
Mostly cloudy
Mostly cloudy
 Wind from NNW
Wind: NNW 10 mph , 17 km/h
Temperature: 12°C
Dew Point: 9°C
Humidity: 82%
Barometer: 1029 hPa
Clouds: Mostly cloudy
Visibility: 6 miles , 10 km
Cloud details: Few Clouds 610 m
Mostly cloudy 1189 m
2018/10/21 16:50 EGOS 211650Z AUTO 33009KT 9999 FEW020/// BKN039/// 12/09 Q1029
EGYH - Holbeach (aut), United Kingdom
Distance: ESE 62mi, 99km
Updated: 19/10/2018 10:50
NOT Current
Clear
Clear
 Wind from N
Wind: N 7 mph , 11 km/h
Temperature: 11°C
Dew Point: 10°C
Humidity: 94%
Barometer: 1027 hPa
Summary: Clear
Visibility: greater than 7 miles , 10 km
2018/10/19 09:50 EGYH 190950Z 35006KT CAVOK 11/10 Q1027 BLU
 
EGXV - Leconfield (aut), United Kingdom
Distance: NNE 65mi, 105km
Updated: 21/10/2018 17:50
Mostly cloudy
Mostly cloudy
 Wind from NW
Wind: NW 7 mph , 11 km/h
Temperature: 15°C
Dew Point: 10°C
Humidity: 72%
Barometer: 1025 hPa
Clouds: Mostly cloudy
Visibility: 6 miles , 10 km
Cloud details: Few Clouds 914 m
Mostly cloudy 1097 m
2018/10/21 16:50 EGXV 211650Z AUTO 31006KT 9999 FEW030/// BKN036/// 15/10 Q1025
EGXS - Donna Nook Raf, United Kingdom
Distance: ENE 66mi, 106km
Updated: 21/10/2018 17:50
Mostly cloudy
Mostly cloudy
 Wind from W
Wind: W 9 mph , 15 km/h
Temperature: 16°C
Dew Point: 12°C
Humidity: 77%
Barometer: 1025 hPa
Clouds: Mostly cloudy
Visibility: 6 miles , 10 km
Cloud details: Mostly cloudy 610 m
Partly cloudy 2438 m
Mostly cloudy 3048 m
2018/10/21 16:50 EGXS 211650Z AUTO 27008KT 9999 // BKN020/// SCT080/// BKN100/// 16/12 Q1025
EGGP - Liverpool Airpor, United Kingdom
Distance: WNW 67mi, 107km
Updated: 21/10/2018 18:20
Mostly cloudy
Mostly cloudy
 Wind from NW
Wind: NW 13 mph , 20 km/h
Temperature: 13°C
Dew Point: 8°C
Humidity: 72%
Barometer: 1029 hPa
Clouds: Mostly cloudy
Visibility: 6 miles , 10 km
Cloud details: Few Clouds 488 m
Partly cloudy 640 m
Mostly cloudy 823 m
2018/10/21 17:20 EGGP 211720Z 32011KT 9999 FEW016 SCT021 BKN027 13/08 Q1029
 
EGXU - Linton-On-Ouse R, United Kingdom
Distance: N 68mi, 109km
Updated: 21/10/2018 17:50
Mostly cloudy
Mostly cloudy
 Wind from NW
Wind: NW 14 mph , 22 km/h
Temperature: 13°C
Dew Point: 8°C
Humidity: 72%
Barometer: 1027 hPa
Clouds: Mostly cloudy
Visibility: 6 miles , 10 km
Cloud details: Mostly cloudy 1524 m
2018/10/21 16:50 EGXU 211650Z AUTO 32012KT 9999 // BKN050/// 13/08 Q1027
EGNR - Hawarden (aut), United Kingdom
Distance: W 70mi, 112km
Updated: 21/10/2018 18:20
Partly cloudy
Partly cloudy
 Wind from NW
Wind: NW 16 mph , 26 km/h
Temperature: 12°C
Dew Point: 9°C
Humidity: 82%
Barometer: 1030 hPa
Clouds: Partly cloudy
Visibility: 6 miles , 10 km
Cloud details: Partly cloudy 305 m
2018/10/21 17:20 EGNR 211720Z 32014KT 9999 SCT010 12/09 Q1030